sensor_id;sensor_type;location;lat;lon;timestamp;pressure;altitude;pressure_sealevel;temperature;humidity
69570;BME280;56781;42.292;23.146;2023-07-20T00:00:07;95251.81;;;20.95;83.90
69570;BME280;56781;42.292;23.146;2023-07-20T00:02:34;95241.63;;;20.89;83.71
69570;BME280;56781;42.292;23.146;2023-07-20T00:05:01;95241.31;;;20.97;83.46
69570;BME280;56781;42.292;23.146;2023-07-20T00:07:29;95241.00;;;21.06;82.71
69570;BME280;56781;42.292;23.146;2023-07-20T00:09:56;95235.50;;;20.99;84.08
69570;BME280;56781;42.292;23.146;2023-07-20T00:12:23;95238.66;;;21.01;83.50
69570;BME280;56781;42.292;23.146;2023-07-20T00:14:51;95233.44;;;20.85;84.76
69570;BME280;56781;42.292;23.146;2023-07-20T00:17:20;95237.69;;;20.83;85.53
69570;BME280;56781;42.292;23.146;2023-07-20T00:19:47;95232.38;;;20.97;84.95
69570;BME280;56781;42.292;23.146;2023-07-20T00:22:14;95232.44;;;21.04;84.39
69570;BME280;56781;42.292;23.146;2023-07-20T00:24:42;95242.09;;;20.98;86.45
69570;BME280;56781;42.292;23.146;2023-07-20T00:27:09;95235.00;;;20.90;86.06
69570;BME280;56781;42.292;23.146;2023-07-20T00:29:36;95230.63;;;20.78;86.97
69570;BME280;56781;42.292;23.146;2023-07-20T00:32:04;95225.91;;;20.71;88.06
69570;BME280;56781;42.292;23.146;2023-07-20T00:34:34;95221.69;;;20.77;87.81
69570;BME280;56781;42.292;23.146;2023-07-20T00:37:01;95227.44;;;20.72;87.43
69570;BME280;56781;42.292;23.146;2023-07-20T00:39:28;95241.91;;;20.76;86.70
69570;BME280;56781;42.292;23.146;2023-07-20T00:41:56;95229.72;;;20.67;87.38
69570;BME280;56781;42.292;23.146;2023-07-20T00:44:23;95221.16;;;20.65;87.96
69570;BME280;56781;42.292;23.146;2023-07-20T00:46:50;95213.16;;;20.49;88.15
69570;BME280;56781;42.292;23.146;2023-07-20T00:49:18;95221.91;;;20.31;91.83
69570;BME280;56781;42.292;23.146;2023-07-20T00:51:48;95208.34;;;20.05;93.38
69570;BME280;56781;42.292;23.146;2023-07-20T00:54:16;95224.31;;;19.80;95.85
69570;BME280;56781;42.292;23.146;2023-07-20T00:56:44;95217.03;;;19.61;96.39
69570;BME280;56781;42.292;23.146;2023-07-20T00:59:11;95214.47;;;19.68;95.65
69570;BME280;56781;42.292;23.146;2023-07-20T01:01:38;95205.75;;;19.59;95.73
69570;BME280;56781;42.292;23.146;2023-07-20T01:04:06;95218.91;;;19.57;96.38
69570;BME280;56781;42.292;23.146;2023-07-20T01:09:16;95216.22;;;19.34;96.04
69570;BME280;56781;42.292;23.146;2023-07-20T01:14:28;95212.13;;;19.20;93.31
69570;BME280;56781;42.292;23.146;2023-07-20T01:16:55;95214.72;;;19.13;95.31
69570;BME280;56781;42.292;23.146;2023-07-20T01:19:22;95218.81;;;19.03;97.01
69570;BME280;56781;42.292;23.146;2023-07-20T01:33:09;95221.81;;;18.56;100.00
69570;BME280;56781;42.292;23.146;2023-07-20T01:35:40;95205.22;;;18.38;100.00
69570;BME280;56781;42.292;23.146;2023-07-20T01:38:08;95203.34;;;18.23;100.00
69570;BME280;56781;42.292;23.146;2023-07-20T01:40:36;95214.19;;;18.23;100.00
69570;BME280;56781;42.292;23.146;2023-07-20T01:43:03;95214.47;;;18.17;100.00
69570;BME280;56781;42.292;23.146;2023-07-20T01:45:30;95203.84;;;18.09;100.00
69570;BME280;56781;42.292;23.146;2023-07-20T01:47:57;95207.59;;;18.04;100.00
69570;BME280;56781;42.292;23.146;2023-07-20T01:50:25;95193.34;;;17.88;100.00
69570;BME280;56781;42.292;23.146;2023-07-20T01:52:52;95200.88;;;17.79;100.00
69570;BME280;56781;42.292;23.146;2023-07-20T01:55:19;95202.56;;;17.67;100.00
69570;BME280;56781;42.292;23.146;2023-07-20T01:57:46;95204.22;;;17.56;100.00
69570;BME280;56781;42.292;23.146;2023-07-20T02:00:13;95201.53;;;17.56;100.00
69570;BME280;56781;42.292;23.146;2023-07-20T02:02:41;95212.53;;;17.47;100.00
69570;BME280;56781;42.292;23.146;2023-07-20T02:05:09;95217.16;;;17.47;100.00
69570;BME280;56781;42.292;23.146;2023-07-20T02:07:36;95200.31;;;17.38;100.00
69570;BME280;56781;42.292;23.146;2023-07-20T02:10:04;95199.00;;;17.32;100.00
69570;BME280;56781;42.292;23.146;2023-07-20T02:12:31;95216.19;;;17.39;100.00
69570;BME280;56781;42.292;23.146;2023-07-20T02:14:58;95202.16;;;17.34;100.00
69570;BME280;56781;42.292;23.146;2023-07-20T02:17:26;95213.75;;;17.34;100.00
69570;BME280;56781;42.292;23.146;2023-07-20T02:19:53;95223.19;;;17.24;100.00
69570;BME280;56781;42.292;23.146;2023-07-20T02:22:21;95220.69;;;17.16;100.00
69570;BME280;56781;42.292;23.146;2023-07-20T02:24:49;95222.56;;;17.15;100.00
69570;BME280;56781;42.292;23.146;2023-07-20T02:27:17;95223.44;;;17.03;100.00
69570;BME280;56781;42.292;23.146;2023-07-20T02:29:44;95223.13;;;17.05;100.00
69570;BME280;56781;42.292;23.146;2023-07-20T02:32:11;95233.38;;;17.15;100.00
69570;BME280;56781;42.292;23.146;2023-07-20T02:34:38;95214.63;;;16.91;100.00
69570;BME280;56781;42.292;23.146;2023-07-20T02:37:05;95221.09;;;16.86;100.00
69570;BME280;56781;42.292;23.146;2023-07-20T02:39:35;95217.16;;;16.55;100.00
69570;BME280;56781;42.292;23.146;2023-07-20T02:42:03;95206.88;;;16.45;100.00
69570;BME280;56781;42.292;23.146;2023-07-20T02:44:30;95213.00;;;16.30;100.00
69570;BME280;56781;42.292;23.146;2023-07-20T02:46:57;95199.81;;;16.28;100.00
69570;BME280;56781;42.292;23.146;2023-07-20T02:49:24;95213.69;;;16.27;100.00
69570;BME280;56781;42.292;23.146;2023-07-20T02:51:52;95208.47;;;16.34;100.00
69570;BME280;56781;42.292;23.146;2023-07-20T02:54:20;95199.56;;;16.33;100.00
69570;BME280;56781;42.292;23.146;2023-07-20T02:56:47;95202.72;;;16.35;100.00
69570;BME280;56781;42.292;23.146;2023-07-20T02:59:14;95193.41;;;16.33;100.00
69570;BME280;56781;42.292;23.146;2023-07-20T03:01:42;95198.72;;;16.29;100.00
69570;BME280;56781;42.292;23.146;2023-07-20T03:04:09;95195.75;;;16.34;100.00
69570;BME280;56781;42.292;23.146;2023-07-20T03:06:38;95194.38;;;16.40;100.00
69570;BME280;56781;42.292;23.146;2023-07-20T03:09:06;95213.81;;;16.46;100.00
69570;BME280;56781;42.292;23.146;2023-07-20T03:11:33;95200.19;;;16.27;100.00
69570;BME280;56781;42.292;23.146;2023-07-20T03:14:01;95222.78;;;16.34;100.00
69570;BME280;56781;42.292;23.146;2023-07-20T03:16:28;95214.44;;;16.39;100.00
69570;BME280;56781;42.292;23.146;2023-07-20T03:18:55;95202.72;;;16.35;100.00
69570;BME280;56781;42.292;23.146;2023-07-20T03:21:22;95200.94;;;16.39;100.00
69570;BME280;56781;42.292;23.146;2023-07-20T03:23:50;95200.81;;;16.36;100.00
69570;BME280;56781;42.292;23.146;2023-07-20T03:26:17;95206.75;;;16.42;100.00
69570;BME280;56781;42.292;23.146;2023-07-20T03:28:44;95213.91;;;16.50;100.00
69570;BME280;56781;42.292;23.146;2023-07-20T03:31:11;95215.59;;;16.54;100.00
69570;BME280;56781;42.292;23.146;2023-07-20T03:33:38;95223.72;;;16.70;100.00
69570;BME280;56781;42.292;23.146;2023-07-20T03:36:08;95244.38;;;16.91;100.00
69570;BME280;56781;42.292;23.146;2023-07-20T03:38:37;95228.84;;;16.88;100.00
69570;BME280;56781;42.292;23.146;2023-07-20T03:41:04;95234.34;;;16.91;100.00
69570;BME280;56781;42.292;23.146;2023-07-20T03:43:31;95223.19;;;16.93;100.00
69570;BME280;56781;42.292;23.146;2023-07-20T03:45:58;95238.63;;;17.08;100.00
69570;BME280;56781;42.292;23.146;2023-07-20T03:48:26;95221.00;;;17.14;100.00
69570;BME280;56781;42.292;23.146;2023-07-20T03:50:54;95222.69;;;17.19;100.00
69570;BME280;56781;42.292;23.146;2023-07-20T03:53:21;95226.34;;;17.26;100.00
69570;BME280;56781;42.292;23.146;2023-07-20T03:55:50;95234.03;;;17.24;100.00
69570;BME280;56781;42.292;23.146;2023-07-20T03:58:18;95236.22;;;17.19;100.00
69570;BME280;56781;42.292;23.146;2023-07-20T04:00:47;95239.16;;;17.14;100.00
69570;BME280;56781;42.292;23.146;2023-07-20T04:03:15;95244.41;;;17.22;100.00
69570;BME280;56781;42.292;23.146;2023-07-20T04:05:43;95254.97;;;17.27;100.00
69570;BME280;56781;42.292;23.146;2023-07-20T04:08:10;95242.06;;;17.21;100.00
69570;BME280;56781;42.292;23.146;2023-07-20T04:10:43;95239.25;;;17.33;100.00
69570;BME280;56781;42.292;23.146;2023-07-20T04:13:12;95228.59;;;17.56;100.00
69570;BME280;56781;42.292;23.146;2023-07-20T04:15:39;95203.44;;;17.56;100.00
69570;BME280;56781;42.292;23.146;2023-07-20T04:18:06;95212.94;;;17.65;100.00
69570;BME280;56781;42.292;23.146;2023-07-20T04:20:33;95238.31;;;17.77;100.00
69570;BME280;56781;42.292;23.146;2023-07-20T04:23:00;95216.75;;;17.80;100.00
69570;BME280;56781;42.292;23.146;2023-07-20T04:25:28;95218.06;;;17.86;100.00
69570;BME280;56781;42.292;23.146;2023-07-20T04:27:55;95203.63;;;17.98;100.00
69570;BME280;56781;42.292;23.146;2023-07-20T04:30:22;95214.84;;;18.16;100.00
69570;BME280;56781;42.292;23.146;2023-07-20T04:32:50;95213.19;;;18.11;100.00
69570;BME280;56781;42.292;23.146;2023-07-20T04:35:25;95213.63;;;18.13;100.00
69570;BME280;56781;42.292;23.146;2023-07-20T04:38:05;95216.91;;;18.23;100.00
69570;BME280;56781;42.292;23.146;2023-07-20T04:40:32;95210.47;;;18.31;100.00
69570;BME280;56781;42.292;23.146;2023-07-20T04:42:59;95221.69;;;18.49;100.00
69570;BME280;56781;42.292;23.146;2023-07-20T04:45:26;95201.50;;;18.46;100.00
69570;BME280;56781;42.292;23.146;2023-07-20T04:47:53;95218.66;;;18.73;100.00
69570;BME280;56781;42.292;23.146;2023-07-20T04:50:21;95220.56;;;18.92;100.00
69570;BME280;56781;42.292;23.146;2023-07-20T04:52:48;95209.53;;;19.04;100.00
69570;BME280;56781;42.292;23.146;2023-07-20T04:55:15;95226.59;;;19.28;100.00
69570;BME280;56781;42.292;23.146;2023-07-20T04:57:42;95224.41;;;19.37;100.00
69570;BME280;56781;42.292;23.146;2023-07-20T05:00:10;95223.19;;;19.58;100.00
69570;BME280;56781;42.292;23.146;2023-07-20T05:02:38;95209.13;;;19.75;99.13
69570;BME280;56781;42.292;23.146;2023-07-20T05:05:06;95211.63;;;19.87;99.88
69570;BME280;56781;42.292;23.146;2023-07-20T05:07:33;95225.19;;;20.14;99.80
69570;BME280;56781;42.292;23.146;2023-07-20T05:10:00;95215.72;;;20.34;98.30
69570;BME280;56781;42.292;23.146;2023-07-20T05:12:28;95227.19;;;20.51;97.82
69570;BME280;56781;42.292;23.146;2023-07-20T05:14:55;95202.34;;;20.52;96.83
69570;BME280;56781;42.292;23.146;2023-07-20T05:17:22;95204.13;;;20.71;95.41
69570;BME280;56781;42.292;23.146;2023-07-20T05:19:49;95213.63;;;20.88;94.22
69570;BME280;56781;42.292;23.146;2023-07-20T05:22:17;95202.13;;;21.06;92.92
69570;BME280;56781;42.292;23.146;2023-07-20T05:24:44;95214.38;;;21.30;92.44
69570;BME280;56781;42.292;23.146;2023-07-20T05:27:11;95199.25;;;21.32;92.28
69570;BME280;56781;42.292;23.146;2023-07-20T05:29:44;95196.97;;;21.38;91.94
69570;BME280;56781;42.292;23.146;2023-07-20T05:32:12;95204.53;;;21.55;91.11
69570;BME280;56781;42.292;23.146;2023-07-20T05:34:39;95199.19;;;21.77;88.49
69570;BME280;56781;42.292;23.146;2023-07-20T05:37:07;95196.09;;;21.82;87.58
69570;BME280;56781;42.292;23.146;2023-07-20T05:39:40;95205.94;;;21.94;89.31
69570;BME280;56781;42.292;23.146;2023-07-20T05:42:07;95212.38;;;22.30;88.20
69570;BME280;56781;42.292;23.146;2023-07-20T05:44:35;95215.56;;;22.50;84.26
69570;BME280;56781;42.292;23.146;2023-07-20T05:47:03;95209.78;;;22.73;82.48
69570;BME280;56781;42.292;23.146;2023-07-20T05:49:30;95205.13;;;22.88;82.89
69570;BME280;56781;42.292;23.146;2023-07-20T05:51:58;95218.09;;;23.09;83.49
69570;BME280;56781;42.292;23.146;2023-07-20T05:54:25;95201.31;;;23.07;83.00
69570;BME280;56781;42.292;23.146;2023-07-20T05:56:52;95223.56;;;23.44;80.08
69570;BME280;56781;42.292;23.146;2023-07-20T05:59:20;95218.91;;;23.70;78.98
69570;BME280;56781;42.292;23.146;2023-07-20T06:01:47;95211.84;;;23.91;78.03
69570;BME280;56781;42.292;23.146;2023-07-20T06:04:15;95204.75;;;24.15;78.12
69570;BME280;56781;42.292;23.146;2023-07-20T06:06:42;95216.50;;;24.19;77.08
69570;BME280;56781;42.292;23.146;2023-07-20T06:09:10;95210.16;;;24.43;77.01
69570;BME280;56781;42.292;23.146;2023-07-20T06:11:39;95201.13;;;24.57;73.88
69570;BME280;56781;42.292;23.146;2023-07-20T06:14:06;95196.81;;;24.56;76.39
69570;BME280;56781;42.292;23.146;2023-07-20T06:16:33;95190.44;;;24.81;74.05
69570;BME280;56781;42.292;23.146;2023-07-20T06:19:00;95203.56;;;25.11;74.05
69570;BME280;56781;42.292;23.146;2023-07-20T06:21:27;95186.72;;;25.12;74.26
69570;BME280;56781;42.292;23.146;2023-07-20T06:23:55;95186.41;;;25.03;74.45
69570;BME280;56781;42.292;23.146;2023-07-20T06:26:22;95192.19;;;25.64;70.26
69570;BME280;56781;42.292;23.146;2023-07-20T06:28:50;95192.44;;;25.81;70.23
69570;BME280;56781;42.292;23.146;2023-07-20T06:31:17;95177.88;;;25.91;70.75
69570;BME280;56781;42.292;23.146;2023-07-20T06:33:44;95177.56;;;26.20;71.20
69570;BME280;56781;42.292;23.146;2023-07-20T06:36:11;95167.34;;;26.20;69.12
69570;BME280;56781;42.292;23.146;2023-07-20T06:38:39;95163.47;;;26.52;67.68
69570;BME280;56781;42.292;23.146;2023-07-20T06:41:07;95165.72;;;26.61;68.05
69570;BME280;56781;42.292;23.146;2023-07-20T06:43:37;95168.78;;;26.66;67.65
69570;BME280;56781;42.292;23.146;2023-07-20T06:46:07;95163.34;;;26.63;67.77
69570;BME280;56781;42.292;23.146;2023-07-20T06:48:34;95166.91;;;27.17;67.16
69570;BME280;56781;42.292;23.146;2023-07-20T06:51:21;95165.06;;;27.81;65.74
69570;BME280;56781;42.292;23.146;2023-07-20T06:53:49;95147.22;;;27.90;62.09
69570;BME280;56781;42.292;23.146;2023-07-20T06:56:16;95148.59;;;27.78;62.00
69570;BME280;56781;42.292;23.146;2023-07-20T06:58:45;95148.72;;;27.71;62.11
69570;BME280;56781;42.292;23.146;2023-07-20T07:01:13;95166.59;;;27.35;62.54
69570;BME280;56781;42.292;23.146;2023-07-20T07:03:41;95178.28;;;26.89;62.31
69570;BME280;56781;42.292;23.146;2023-07-20T07:06:09;95176.91;;;26.73;66.39
69570;BME280;56781;42.292;23.146;2023-07-20T07:08:36;95187.50;;;26.75;65.32
69570;BME280;56781;42.292;23.146;2023-07-20T07:11:03;95185.41;;;26.56;66.58
69570;BME280;56781;42.292;23.146;2023-07-20T07:13:30;95198.34;;;26.55;68.03
69570;BME280;56781;42.292;23.146;2023-07-20T07:15:57;95179.16;;;27.09;64.95
69570;BME280;56781;42.292;23.146;2023-07-20T07:18:25;95189.84;;;27.54;63.31
69570;BME280;56781;42.292;23.146;2023-07-20T07:20:53;95191.59;;;27.45;63.64
69570;BME280;56781;42.292;23.146;2023-07-20T07:23:20;95196.66;;;27.23;61.35
69570;BME280;56781;42.292;23.146;2023-07-20T07:25:48;95202.28;;;27.12;62.06
69570;BME280;56781;42.292;23.146;2023-07-20T07:28:15;95204.81;;;26.99;61.93
69570;BME280;56781;42.292;23.146;2023-07-20T07:30:42;95216.38;;;27.14;64.31
69570;BME280;56781;42.292;23.146;2023-07-20T07:33:09;95225.81;;;27.13;59.85
69570;BME280;56781;42.292;23.146;2023-07-20T07:35:37;95204.03;;;27.53;63.06
69570;BME280;56781;42.292;23.146;2023-07-20T07:38:04;95210.28;;;28.04;61.02
69570;BME280;56781;42.292;23.146;2023-07-20T07:40:54;95218.78;;;28.53;60.06
69570;BME280;56781;42.292;23.146;2023-07-20T07:43:21;95216.09;;;28.69;59.93
69570;BME280;56781;42.292;23.146;2023-07-20T07:45:48;95223.34;;;29.00;57.76
69570;BME280;56781;42.292;23.146;2023-07-20T07:48:15;95225.53;;;29.08;58.47
69570;BME280;56781;42.292;23.146;2023-07-20T07:50:44;95212.78;;;29.14;57.47
69570;BME280;56781;42.292;23.146;2023-07-20T07:53:11;95227.22;;;29.02;59.94
69570;BME280;56781;42.292;23.146;2023-07-20T07:55:38;95220.53;;;29.20;56.18
69570;BME280;56781;42.292;23.146;2023-07-20T07:58:05;95213.34;;;29.75;54.94
69570;BME280;56781;42.292;23.146;2023-07-20T08:00:33;95198.81;;;30.03;54.78
69570;BME280;56781;42.292;23.146;2023-07-20T08:03:00;95179.63;;;30.13;55.72
69570;BME280;56781;42.292;23.146;2023-07-20T08:05:27;95171.75;;;30.57;54.39
69570;BME280;56781;42.292;23.146;2023-07-20T08:07:54;95167.84;;;30.41;53.11
69570;BME280;56781;42.292;23.146;2023-07-20T08:10:22;95152.94;;;30.64;52.61
69570;BME280;56781;42.292;23.146;2023-07-20T08:12:49;95150.03;;;30.84;51.44
69570;BME280;56781;42.292;23.146;2023-07-20T08:15:17;95134.97;;;30.85;50.81
69570;BME280;56781;42.292;23.146;2023-07-20T08:17:44;95138.69;;;30.66;49.96
69570;BME280;56781;42.292;23.146;2023-07-20T08:20:13;95162.75;;;30.82;49.84
69570;BME280;56781;42.292;23.146;2023-07-20T08:22:40;95156.97;;;30.34;49.65
69570;BME280;56781;42.292;23.146;2023-07-20T08:25:08;95168.53;;;30.58;50.23
69570;BME280;56781;42.292;23.146;2023-07-20T08:27:37;95147.34;;;30.68;48.45
69570;BME280;56781;42.292;23.146;2023-07-20T08:30:05;95153.09;;;31.50;49.61
69570;BME280;56781;42.292;23.146;2023-07-20T08:32:32;95151.75;;;31.29;51.05
69570;BME280;56781;42.292;23.146;2023-07-20T08:34:59;95133.31;;;31.39;49.32
69570;BME280;56781;42.292;23.146;2023-07-20T08:37:26;95125.22;;;31.45;47.32
69570;BME280;56781;42.292;23.146;2023-07-20T08:39:53;95119.94;;;31.25;49.39
69570;BME280;56781;42.292;23.146;2023-07-20T08:42:22;95113.94;;;31.26;47.46
69570;BME280;56781;42.292;23.146;2023-07-20T08:44:50;95116.41;;;30.86;49.16
69570;BME280;56781;42.292;23.146;2023-07-20T08:47:20;95123.38;;;31.03;48.84
69570;BME280;56781;42.292;23.146;2023-07-20T08:49:52;95135.41;;;31.48;47.61
69570;BME280;56781;42.292;23.146;2023-07-20T08:52:21;95121.47;;;31.39;48.72
69570;BME280;56781;42.292;23.146;2023-07-20T08:54:49;95127.81;;;31.74;49.90
69570;BME280;56781;42.292;23.146;2023-07-20T08:57:17;95129.53;;;31.46;48.97
69570;BME280;56781;42.292;23.146;2023-07-20T08:59:44;95147.34;;;31.32;48.14
69570;BME280;56781;42.292;23.146;2023-07-20T09:02:15;95138.72;;;31.43;49.40
69570;BME280;56781;42.292;23.146;2023-07-20T09:04:45;95127.13;;;31.70;48.53
69570;BME280;56781;42.292;23.146;2023-07-20T09:07:13;95117.59;;;31.49;51.89
69570;BME280;56781;42.292;23.146;2023-07-20T09:09:41;95118.56;;;31.55;50.70
69570;BME280;56781;42.292;23.146;2023-07-20T09:12:15;95107.31;;;31.71;48.99
69570;BME280;56781;42.292;23.146;2023-07-20T09:14:44;95112.03;;;31.84;48.39
69570;BME280;56781;42.292;23.146;2023-07-20T09:17:14;95120.59;;;31.42;49.96
69570;BME280;56781;42.292;23.146;2023-07-20T09:19:47;95134.09;;;31.40;48.77
69570;BME280;56781;42.292;23.146;2023-07-20T09:22:15;95126.69;;;31.37;49.20
69570;BME280;56781;42.292;23.146;2023-07-20T09:24:44;95112.19;;;31.32;51.90
69570;BME280;56781;42.292;23.146;2023-07-20T09:27:12;95120.91;;;31.31;49.29
69570;BME280;56781;42.292;23.146;2023-07-20T09:29:51;95113.28;;;31.22;49.91
69570;BME280;56781;42.292;23.146;2023-07-20T09:32:19;95111.22;;;31.61;50.76
69570;BME280;56781;42.292;23.146;2023-07-20T09:34:50;95103.22;;;31.76;50.49
69570;BME280;56781;42.292;23.146;2023-07-20T09:37:22;95106.94;;;31.60;48.52
69570;BME280;56781;42.292;23.146;2023-07-20T09:39:53;95112.94;;;31.46;49.24
69570;BME280;56781;42.292;23.146;2023-07-20T09:42:23;95113.63;;;31.24;49.97
69570;BME280;56781;42.292;23.146;2023-07-20T09:44:55;95112.34;;;31.51;48.86
69570;BME280;56781;42.292;23.146;2023-07-20T09:47:24;95107.09;;;31.44;48.06
69570;BME280;56781;42.292;23.146;2023-07-20T09:49:58;95103.81;;;31.58;49.03
69570;BME280;56781;42.292;23.146;2023-07-20T09:52:30;95109.97;;;31.75;50.33
69570;BME280;56781;42.292;23.146;2023-07-20T09:55:01;95106.06;;;31.85;47.89
69570;BME280;56781;42.292;23.146;2023-07-20T09:57:29;95107.38;;;31.93;48.92
69570;BME280;56781;42.292;23.146;2023-07-20T09:59:57;95097.41;;;31.96;47.70
69570;BME280;56781;42.292;23.146;2023-07-20T10:02:33;95093.72;;;31.64;47.07
69570;BME280;56781;42.292;23.146;2023-07-20T10:05:03;95096.78;;;31.79;48.60
69570;BME280;56781;42.292;23.146;2023-07-20T10:07:36;95107.91;;;32.01;47.20
69570;BME280;56781;42.292;23.146;2023-07-20T10:10:06;95104.28;;;32.13;46.93
69570;BME280;56781;42.292;23.146;2023-07-20T10:12:39;95101.59;;;31.66;47.38
69570;BME280;56781;42.292;23.146;2023-07-20T10:15:20;95091.69;;;31.77;50.69
69570;BME280;56781;42.292;23.146;2023-07-20T10:18:11;95096.97;;;31.85;50.17
69570;BME280;56781;42.292;23.146;2023-07-20T10:20:40;95088.72;;;31.72;49.39
69570;BME280;56781;42.292;23.146;2023-07-20T10:23:12;95081.28;;;31.82;48.14
69570;BME280;56781;42.292;23.146;2023-07-20T10:25:40;95079.84;;;32.43;51.86
69570;BME280;56781;42.292;23.146;2023-07-20T10:28:10;95086.75;;;32.60;45.27
69570;BME280;56781;42.292;23.146;2023-07-20T10:30:38;95095.31;;;32.53;46.13
69570;BME280;56781;42.292;23.146;2023-07-20T10:33:05;95095.91;;;32.04;45.37
69570;BME280;56781;42.292;23.146;2023-07-20T10:35:54;95085.34;;;32.12;47.39
69570;BME280;56781;42.292;23.146;2023-07-20T10:41:38;95097.25;;;32.21;44.95
69570;BME280;56781;42.292;23.146;2023-07-20T10:44:08;95080.53;;;32.25;42.91
69570;BME280;56781;42.292;23.146;2023-07-20T10:49:08;95094.16;;;32.63;43.17
69570;BME280;56781;42.292;23.146;2023-07-20T10:56:59;95074.72;;;32.10;44.34
69570;BME280;56781;42.292;23.146;2023-07-20T10:59:46;95071.63;;;32.52;46.17
69570;BME280;56781;42.292;23.146;2023-07-20T11:02:18;95079.22;;;32.39;42.40
69570;BME280;56781;42.292;23.146;2023-07-20T11:04:47;95056.88;;;32.33;43.12
69570;BME280;56781;42.292;23.146;2023-07-20T11:07:17;95052.13;;;32.43;42.95
69570;BME280;56781;42.292;23.146;2023-07-20T11:09:45;95041.03;;;32.43;42.34
69570;BME280;56781;42.292;23.146;2023-07-20T11:12:18;95033.44;;;32.56;41.46
69570;BME280;56781;42.292;23.146;2023-07-20T11:14:56;95033.44;;;32.56;41.34
69570;BME280;56781;42.292;23.146;2023-07-20T11:17:30;95027.63;;;32.63;40.73
69570;BME280;56781;42.292;23.146;2023-07-20T11:19:59;95033.94;;;32.64;41.48
69570;BME280;56781;42.292;23.146;2023-07-20T11:22:33;95033.03;;;32.36;43.86
69570;BME280;56781;42.292;23.146;2023-07-20T11:25:00;95038.38;;;32.61;44.61
69570;BME280;56781;42.292;23.146;2023-07-20T11:27:27;95031.66;;;32.81;45.93
69570;BME280;56781;42.292;23.146;2023-07-20T11:29:56;95021.75;;;32.61;40.99
69570;BME280;56781;42.292;23.146;2023-07-20T11:32:23;95017.78;;;32.72;43.29
69570;BME280;56781;42.292;23.146;2023-07-20T11:34:51;95009.06;;;32.92;43.69
69570;BME280;56781;42.292;23.146;2023-07-20T11:37:18;95001.22;;;32.90;42.18
69570;BME280;56781;42.292;23.146;2023-07-20T11:39:46;95008.22;;;32.63;41.83
69570;BME280;56781;42.292;23.146;2023-07-20T11:42:13;95017.88;;;32.50;40.91
69570;BME280;56781;42.292;23.146;2023-07-20T11:44:44;95004.50;;;32.57;39.44
69570;BME280;56781;42.292;23.146;2023-07-20T11:47:12;95011.91;;;32.60;40.64
69570;BME280;56781;42.292;23.146;2023-07-20T11:49:41;94997.06;;;32.54;42.04
69570;BME280;56781;42.292;23.146;2023-07-20T11:52:10;94999.91;;;32.63;43.88
69570;BME280;56781;42.292;23.146;2023-07-20T11:54:39;94987.72;;;32.70;44.84
69570;BME280;56781;42.292;23.146;2023-07-20T11:57:07;94989.75;;;32.79;44.88
69570;BME280;56781;42.292;23.146;2023-07-20T11:59:55;94988.63;;;33.07;42.36
69570;BME280;56781;42.292;23.146;2023-07-20T12:02:28;94980.91;;;33.30;41.48
69570;BME280;56781;42.292;23.146;2023-07-20T12:04:56;94973.22;;;33.16;41.27
69570;BME280;56781;42.292;23.146;2023-07-20T12:07:27;94977.53;;;33.07;39.51
69570;BME280;56781;42.292;23.146;2023-07-20T12:12:39;94971.16;;;32.98;41.65
69570;BME280;56781;42.292;23.146;2023-07-20T12:17:45;94958.09;;;33.07;44.96
69570;BME280;56781;42.292;23.146;2023-07-20T12:20:12;94962.28;;;33.12;41.20
69570;BME280;56781;42.292;23.146;2023-07-20T12:22:42;94958.25;;;33.13;42.20
69570;BME280;56781;42.292;23.146;2023-07-20T12:25:10;94951.91;;;33.03;41.83
69570;BME280;56781;42.292;23.146;2023-07-20T12:27:37;94948.97;;;32.79;39.14
69570;BME280;56781;42.292;23.146;2023-07-20T12:30:08;94944.78;;;32.84;40.22
69570;BME280;56781;42.292;23.146;2023-07-20T12:32:35;94942.03;;;32.93;45.58
69570;BME280;56781;42.292;23.146;2023-07-20T12:35:03;94938.53;;;33.02;40.53
69570;BME280;56781;42.292;23.146;2023-07-20T12:37:30;94943.16;;;33.05;42.30
69570;BME280;56781;42.292;23.146;2023-07-20T12:39:57;94936.53;;;33.02;42.33
69570;BME280;56781;42.292;23.146;2023-07-20T12:42:24;94918.97;;;33.05;44.17
69570;BME280;56781;42.292;23.146;2023-07-20T12:44:51;94914.16;;;33.06;42.53
69570;BME280;56781;42.292;23.146;2023-07-20T12:47:18;94921.41;;;33.03;42.67
69570;BME280;56781;42.292;23.146;2023-07-20T12:49:45;94918.97;;;33.05;40.85
69570;BME280;56781;42.292;23.146;2023-07-20T12:52:13;94923.41;;;33.03;44.90
69570;BME280;56781;42.292;23.146;2023-07-20T12:54:41;94917.88;;;33.21;42.15
69570;BME280;56781;42.292;23.146;2023-07-20T12:57:08;94915.88;;;33.22;41.90
69570;BME280;56781;42.292;23.146;2023-07-20T12:59:53;94908.78;;;33.21;41.70
69570;BME280;56781;42.292;23.146;2023-07-20T13:02:20;94911.25;;;33.19;43.34
69570;BME280;56781;42.292;23.146;2023-07-20T13:04:47;94910.94;;;33.26;43.57
69570;BME280;56781;42.292;23.146;2023-07-20T13:07:14;94914.03;;;33.37;42.77
69570;BME280;56781;42.292;23.146;2023-07-20T13:09:44;94906.59;;;33.43;42.76
69570;BME280;56781;42.292;23.146;2023-07-20T13:12:11;94897.69;;;33.39;41.88
69570;BME280;56781;42.292;23.146;2023-07-20T13:14:39;94888.75;;;33.17;42.46
69570;BME280;56781;42.292;23.146;2023-07-20T13:17:06;94888.13;;;33.31;42.13
69570;BME280;56781;42.292;23.146;2023-07-20T13:19:35;94885.16;;;33.44;43.98
69570;BME280;56781;42.292;23.146;2023-07-20T13:22:02;94887.72;;;33.84;44.33
69570;BME280;56781;42.292;23.146;2023-07-20T13:24:30;94880.00;;;33.79;41.61
69570;BME280;56781;42.292;23.146;2023-07-20T13:26:57;94869.22;;;33.81;42.42